createdAt,value
2022-12-15T00:03:43.785Z,38.15
2022-12-15T00:09:14.085Z,37.25
2022-12-15T00:14:38.586Z,41.13
2022-12-15T00:20:02.911Z,40.60
2022-12-15T00:25:28.652Z,35.00
2022-12-15T00:30:55.061Z,44.30
2022-12-15T00:36:23.292Z,47.28
2022-12-15T00:41:31.134Z,37.00
2022-12-15T00:46:56.071Z,40.90
2022-12-15T00:52:19.740Z,39.72
2022-12-15T00:57:45.328Z,33.90
2022-12-15T01:03:09.265Z,43.95
2022-12-15T01:08:34.412Z,38.72
2022-12-15T01:13:59.639Z,46.70
2022-12-15T01:19:23.421Z,42.70
2022-12-15T01:24:29.975Z,46.20
2022-12-15T01:29:37.759Z,47.28
2022-12-15T01:34:45.495Z,44.83
2022-12-15T01:40:09.379Z,39.72
2022-12-15T01:45:49.354Z,61.45
2022-12-15T01:51:03.963Z,60.72
2022-12-15T01:56:12.928Z,52.58
2022-12-15T02:01:21.111Z,57.65
2022-12-15T02:06:28.884Z,40.10
2022-12-15T02:12:00.902Z,45.80
2022-12-15T02:17:22.767Z,54.22
2022-12-15T02:22:47.723Z,38.90
2022-12-15T02:28:03.711Z,37.35
2022-12-15T02:33:18.968Z,41.40
2022-12-15T02:38:35.330Z,46.20
2022-12-15T02:43:42.323Z,36.00
2022-12-15T02:49:02.905Z,45.72
2022-12-15T02:54:45.500Z,42.05
2022-12-15T02:59:59.517Z,38.08
2022-12-15T03:05:08.982Z,41.53
2022-12-15T03:10:17.418Z,41.20
2022-12-15T03:15:24.223Z,43.80
2022-12-15T03:20:32.298Z,45.75
2022-12-15T03:25:38.663Z,45.27
2022-12-15T03:30:45.734Z,43.95
2022-12-15T03:35:58.432Z,40.78
2022-12-15T03:41:07.562Z,40.13
2022-12-15T03:46:15.430Z,42.67
2022-12-15T03:51:23.651Z,38.50
2022-12-15T03:56:29.881Z,41.40
2022-12-15T04:01:38.001Z,35.92
2022-12-15T04:06:46.512Z,37.08
2022-12-15T04:11:53.014Z,33.85
2022-12-15T04:17:01.496Z,35.45
2022-12-15T04:22:13.716Z,39.20
2022-12-15T04:27:39.980Z,39.20
2022-12-15T04:33:04.215Z,37.10
2022-12-15T04:38:29.384Z,34.65
2022-12-15T04:43:52.812Z,36.38
2022-12-15T04:49:19.538Z,37.33
2022-12-15T04:54:44.419Z,34.00
2022-12-15T05:00:08.159Z,36.17
2022-12-15T05:05:31.882Z,33.08
2022-12-15T05:10:57.250Z,31.58
2022-12-15T05:16:21.477Z,38.45
2022-12-15T05:21:47.125Z,38.88
2022-12-15T05:27:12.270Z,41.70
2022-12-15T05:32:18.873Z,38.08
2022-12-15T05:37:25.807Z,36.95
2022-12-15T05:42:33.614Z,35.08
2022-12-15T05:47:39.757Z,35.35
2022-12-15T05:52:49.531Z,36.38
2022-12-15T05:57:58.031Z,36.50
2022-12-15T06:03:05.016Z,35.13
2022-12-15T06:08:11.763Z,38.90
2022-12-15T06:13:19.616Z,37.17
2022-12-15T06:18:27.200Z,32.93
2022-12-15T06:23:35.446Z,38.78
2022-12-15T06:28:44.109Z,40.13
2022-12-15T06:33:54.655Z,40.47
2022-12-15T06:39:06.951Z,38.92
2022-12-15T06:44:17.641Z,35.45
2022-12-15T06:49:23.988Z,32.03
2022-12-15T06:54:30.538Z,40.83
2022-12-15T06:59:38.456Z,46.13
2022-12-15T07:04:45.333Z,44.57
2022-12-15T07:09:52.114Z,44.28
2022-12-15T07:15:00.149Z,48.40
2022-12-15T07:20:07.873Z,48.05
2022-12-15T07:25:15.598Z,45.30
2022-12-15T07:30:23.617Z,46.60
2022-12-15T07:35:31.359Z,40.40
2022-12-15T07:40:39.195Z,43.33
2022-12-15T07:45:51.377Z,44.45
2022-12-15T07:51:07.553Z,40.15
2022-12-15T07:56:20.193Z,32.83
2022-12-15T08:01:28.928Z,45.50
2022-12-15T08:06:38.063Z,40.58
2022-12-15T08:11:44.747Z,42.38
2022-12-15T08:16:53.145Z,37.35
2022-12-15T08:21:59.763Z,37.25
2022-12-15T08:27:06.495Z,36.88
2022-12-15T08:32:14.762Z,42.35
2022-12-15T08:37:21.148Z,35.55
2022-12-15T08:42:28.047Z,84.35
2022-12-15T08:47:36.026Z,35.97
2022-12-15T08:53:00.695Z,34.43
2022-12-15T08:58:09.374Z,32.05
2022-12-15T09:03:17.280Z,36.65
2022-12-15T09:08:23.799Z,31.30
2022-12-15T09:13:31.273Z,33.92
2022-12-15T09:18:39.838Z,30.27
2022-12-15T09:23:52.274Z,35.53
2022-12-15T09:28:58.971Z,37.15
2022-12-15T09:34:09.818Z,34.88
2022-12-15T09:39:17.369Z,33.83
2022-12-15T09:44:26.403Z,30.73
2022-12-15T09:54:50.009Z,36.00
2022-12-15T10:00:22.035Z,36.53
2022-12-15T10:06:06.912Z,33.67
2022-12-15T10:11:42.074Z,37.10
2022-12-15T10:17:00.459Z,37.40
2022-12-15T10:22:13.540Z,35.10
2022-12-15T10:27:42.828Z,40.72
2022-12-15T10:32:56.392Z,37.63
2022-12-15T10:38:11.623Z,37.70
2022-12-15T10:43:33.008Z,41.95
2022-12-15T10:48:39.880Z,40.45
2022-12-15T10:53:53.094Z,40.90
2022-12-15T10:59:01.591Z,42.45
2022-12-15T11:04:30.704Z,37.30
2022-12-15T11:09:41.051Z,36.22
2022-12-15T11:14:51.138Z,38.65
2022-12-15T11:20:05.631Z,35.00
2022-12-15T11:25:26.561Z,37.47
2022-12-15T11:30:39.865Z,44.67
2022-12-15T11:36:08.057Z,35.25
2022-12-15T11:41:36.770Z,43.35
2022-12-15T11:46:52.086Z,36.78
2022-12-15T11:52:12.034Z,39.80
2022-12-15T11:57:54.624Z,40.95
2022-12-15T12:03:27.015Z,39.50
2022-12-15T12:09:13.517Z,37.88
2022-12-15T12:14:39.779Z,40.35
2022-12-15T12:19:52.712Z,43.70
2022-12-15T12:25:04.904Z,37.50
2022-12-15T12:30:20.098Z,42.08
2022-12-15T12:35:34.781Z,36.88
2022-12-15T12:41:01.995Z,36.50
2022-12-15T12:46:18.063Z,45.50
2022-12-15T12:51:31.642Z,36.08
2022-12-15T12:56:44.354Z,35.85
2022-12-15T13:01:54.011Z,39.10
2022-12-15T13:07:10.243Z,35.80
2022-12-15T13:18:16.438Z,37.38
2022-12-15T13:24:00.322Z,39.33
2022-12-15T13:29:16.350Z,43.22
2022-12-15T13:34:28.131Z,42.35
2022-12-15T13:39:59.354Z,38.17
2022-12-15T13:45:36.895Z,41.72
2022-12-15T13:50:53.678Z,44.83
2022-12-15T13:56:51.051Z,33.13
2022-12-15T14:01:57.714Z,41.35
2022-12-15T14:07:08.918Z,37.17
2022-12-15T14:12:16.672Z,35.20
2022-12-15T14:17:23.892Z,29.80
2022-12-15T14:22:32.892Z,29.20
2022-12-15T14:27:39.378Z,26.15
2022-12-15T14:32:47.864Z,25.95
2022-12-15T14:38:02.298Z,34.90
2022-12-15T14:43:21.431Z,30.70
2022-12-15T14:48:42.544Z,34.63
2022-12-15T14:53:54.356Z,32.60
2022-12-15T14:59:05.111Z,35.42
2022-12-15T15:04:29.526Z,30.58
2022-12-15T15:09:44.560Z,30.65
2022-12-15T15:14:54.845Z,31.20
2022-12-15T15:20:04.341Z,33.45
2022-12-15T15:25:41.506Z,31.40
2022-12-15T15:30:49.966Z,35.35
2022-12-15T15:35:59.635Z,31.73
2022-12-15T15:41:18.588Z,31.55
2022-12-15T15:51:35.912Z,29.75
2022-12-15T15:56:44.370Z,32.50
2022-12-15T16:01:58.122Z,29.70
2022-12-15T16:07:06.315Z,27.33
2022-12-15T16:12:28.255Z,30.83
2022-12-15T16:17:35.051Z,27.88
2022-12-15T16:22:42.825Z,34.47
2022-12-15T16:27:51.209Z,40.33
2022-12-15T16:32:58.675Z,26.20
2022-12-15T16:38:06.514Z,25.80
2022-12-15T16:43:18.197Z,26.17
2022-12-15T16:48:25.470Z,27.48
2022-12-15T16:53:37.651Z,37.65
2022-12-15T16:58:49.072Z,36.72
2022-12-15T17:04:00.544Z,35.75
2022-12-15T17:09:09.057Z,43.20
2022-12-15T17:14:17.554Z,41.22
2022-12-15T17:19:24.970Z,40.97
2022-12-15T17:24:32.140Z,41.10
2022-12-15T17:29:41.703Z,42.47
2022-12-15T17:34:48.848Z,41.88
2022-12-15T17:39:57.503Z,34.05
2022-12-15T17:45:16.764Z,38.22
2022-12-15T17:50:25.575Z,42.80
2022-12-15T18:00:49.061Z,46.03
2022-12-15T18:05:57.075Z,39.80
2022-12-15T18:11:03.780Z,42.97
2022-12-15T18:16:13.583Z,47.63
2022-12-15T18:21:22.569Z,42.63
2022-12-15T18:26:38.235Z,46.88
2022-12-15T18:31:48.799Z,45.50
2022-12-15T18:36:57.602Z,46.35
2022-12-15T18:47:21.819Z,48.78
2022-12-15T18:52:34.674Z,61.70
2022-12-15T18:57:42.362Z,61.20
2022-12-15T19:02:51.841Z,55.03
2022-12-15T19:08:05.078Z,64.85
2022-12-15T19:13:17.498Z,88.97
2022-12-15T19:18:45.574Z,87.00
2022-12-15T19:23:53.737Z,123.30
2022-12-15T19:29:04.073Z,88.47
2022-12-15T19:34:19.887Z,77.55
2022-12-15T19:39:30.647Z,55.65
2022-12-15T19:44:40.318Z,80.30
2022-12-15T19:49:50.409Z,77.38
2022-12-15T19:55:01.312Z,112.05
2022-12-15T20:00:18.423Z,78.78
2022-12-15T20:05:29.364Z,83.00
2022-12-15T20:10:37.887Z,87.38
2022-12-15T20:15:45.946Z,103.00
2022-12-15T20:20:56.220Z,157.45
2022-12-15T20:26:03.804Z,171.20
2022-12-15T20:31:17.119Z,103.15
2022-12-15T20:36:29.100Z,80.63
2022-12-15T20:41:39.132Z,78.10
2022-12-15T20:52:00.547Z,74.53
2022-12-15T20:57:08.472Z,73.47
2022-12-15T21:02:21.836Z,94.47
2022-12-15T21:07:30.292Z,123.53
2022-12-15T21:12:42.345Z,94.93
2022-12-15T21:17:57.340Z,102.43
2022-12-15T21:28:31.012Z,90.65
2022-12-15T21:33:37.740Z,94.07
2022-12-15T21:38:49.219Z,104.80
2022-12-15T21:43:55.954Z,94.30
2022-12-15T21:49:18.672Z,92.90
2022-12-15T21:54:31.450Z,92.00
2022-12-15T21:59:41.923Z,92.35
2022-12-15T22:04:52.062Z,103.32
2022-12-15T22:09:59.946Z,114.78
2022-12-15T22:15:14.732Z,135.65
2022-12-15T22:20:24.467Z,109.20
2022-12-15T22:25:32.648Z,109.88
2022-12-15T22:30:39.541Z,100.90
2022-12-15T22:35:46.134Z,104.65
2022-12-15T22:40:58.955Z,82.47
2022-12-15T22:46:08.319Z,68.95
2022-12-15T22:51:17.649Z,76.50
2022-12-15T22:56:32.376Z,81.63
2022-12-15T23:01:39.432Z,89.28
2022-12-15T23:06:46.540Z,104.43
2022-12-15T23:11:54.287Z,93.20
2022-12-15T23:17:01.352Z,72.43
2022-12-15T23:22:07.906Z,87.63
2022-12-15T23:27:15.937Z,89.57
2022-12-15T23:32:22.283Z,80.25
2022-12-15T23:37:28.733Z,99.05
2022-12-15T23:42:37.446Z,97.43
2022-12-15T23:47:44.153Z,100.03
2022-12-15T23:52:51.767Z,81.95
2022-12-15T23:58:00.594Z,75.28
